sensor_id;sensor_type;location;lat;lon;timestamp;temperature;humidity
16040;DHT22;8124;48.634;8.120;2022-12-18T00:00:40;-2.90;99.90
16040;DHT22;8124;48.634;8.120;2022-12-18T00:05:47;-3.00;99.90
16040;DHT22;8124;48.634;8.120;2022-12-18T00:10:50;-2.90;99.90
16040;DHT22;8124;48.634;8.120;2022-12-18T00:15:54;-3.10;99.90
16040;DHT22;8124;48.634;8.120;2022-12-18T00:20:59;-3.10;99.90
16040;DHT22;8124;48.634;8.120;2022-12-18T00:26:04;-3.10;99.90
16040;DHT22;8124;48.634;8.120;2022-12-18T00:31:10;-3.00;99.90
16040;DHT22;8124;48.634;8.120;2022-12-18T00:36:15;-3.10;99.90
16040;DHT22;8124;48.634;8.120;2022-12-18T00:41:19;-3.20;99.90
16040;DHT22;8124;48.634;8.120;2022-12-18T00:46:39;-3.30;99.90
16040;DHT22;8124;48.634;8.120;2022-12-18T00:51:43;-3.10;99.90
16040;DHT22;8124;48.634;8.120;2022-12-18T00:56:46;-2.90;99.90
16040;DHT22;8124;48.634;8.120;2022-12-18T01:01:52;-3.00;99.90
16040;DHT22;8124;48.634;8.120;2022-12-18T01:06:55;-3.00;99.90
16040;DHT22;8124;48.634;8.120;2022-12-18T01:11:58;-3.00;99.90
16040;DHT22;8124;48.634;8.120;2022-12-18T01:17:02;-3.30;99.90
16040;DHT22;8124;48.634;8.120;2022-12-18T01:22:07;-3.20;99.90
16040;DHT22;8124;48.634;8.120;2022-12-18T01:27:10;-3.10;99.90
16040;DHT22;8124;48.634;8.120;2022-12-18T01:32:15;-3.00;99.90
16040;DHT22;8124;48.634;8.120;2022-12-18T01:37:18;-3.20;99.90
16040;DHT22;8124;48.634;8.120;2022-12-18T01:42:22;-3.20;99.90
16040;DHT22;8124;48.634;8.120;2022-12-18T01:47:29;-3.10;99.90
16040;DHT22;8124;48.634;8.120;2022-12-18T01:52:33;-3.10;99.90
16040;DHT22;8124;48.634;8.120;2022-12-18T01:57:38;-3.10;99.90
16040;DHT22;8124;48.634;8.120;2022-12-18T02:02:44;-3.10;99.90
16040;DHT22;8124;48.634;8.120;2022-12-18T02:07:55;-3.10;99.90
16040;DHT22;8124;48.634;8.120;2022-12-18T02:13:09;-3.10;99.90
16040;DHT22;8124;48.634;8.120;2022-12-18T02:18:19;-3.00;99.90
16040;DHT22;8124;48.634;8.120;2022-12-18T02:23:37;-3.40;99.90
16040;DHT22;8124;48.634;8.120;2022-12-18T02:28:46;-3.70;99.90
16040;DHT22;8124;48.634;8.120;2022-12-18T02:33:53;-3.40;99.90
16040;DHT22;8124;48.634;8.120;2022-12-18T02:38:58;-3.30;99.90
16040;DHT22;8124;48.634;8.120;2022-12-18T02:44:08;-3.30;99.90
16040;DHT22;8124;48.634;8.120;2022-12-18T02:49:21;-3.30;99.90
16040;DHT22;8124;48.634;8.120;2022-12-18T02:54:39;-3.10;99.90
16040;DHT22;8124;48.634;8.120;2022-12-18T02:59:54;-3.20;99.90
16040;DHT22;8124;48.634;8.120;2022-12-18T03:05:02;-3.20;99.90
16040;DHT22;8124;48.634;8.120;2022-12-18T03:10:13;-3.20;99.90
16040;DHT22;8124;48.634;8.120;2022-12-18T03:15:22;-3.30;99.90
16040;DHT22;8124;48.634;8.120;2022-12-18T03:20:35;-3.30;99.90
16040;DHT22;8124;48.634;8.120;2022-12-18T03:25:42;-3.30;99.90
16040;DHT22;8124;48.634;8.120;2022-12-18T03:30:52;-3.20;99.90
16040;DHT22;8124;48.634;8.120;2022-12-18T03:35:57;-3.50;99.90
16040;DHT22;8124;48.634;8.120;2022-12-18T03:41:07;-3.60;99.90
16040;DHT22;8124;48.634;8.120;2022-12-18T03:46:41;-3.50;99.90
16040;DHT22;8124;48.634;8.120;2022-12-18T03:51:49;-3.30;99.90
16040;DHT22;8124;48.634;8.120;2022-12-18T03:56:57;-3.20;99.90
16040;DHT22;8124;48.634;8.120;2022-12-18T04:02:05;-3.40;99.90
16040;DHT22;8124;48.634;8.120;2022-12-18T04:07:10;-3.40;99.90
16040;DHT22;8124;48.634;8.120;2022-12-18T04:12:17;-3.10;99.90
16040;DHT22;8124;48.634;8.120;2022-12-18T04:17:23;-3.30;99.90
16040;DHT22;8124;48.634;8.120;2022-12-18T04:22:27;-3.30;99.90
16040;DHT22;8124;48.634;8.120;2022-12-18T04:27:33;-3.40;99.90
16040;DHT22;8124;48.634;8.120;2022-12-18T04:32:39;-3.40;99.90
16040;DHT22;8124;48.634;8.120;2022-12-18T04:37:49;-3.50;99.90
16040;DHT22;8124;48.634;8.120;2022-12-18T04:42:52;-3.50;99.90
16040;DHT22;8124;48.634;8.120;2022-12-18T04:47:57;-3.50;99.90
16040;DHT22;8124;48.634;8.120;2022-12-18T04:52:59;-3.40;99.90
16040;DHT22;8124;48.634;8.120;2022-12-18T04:58:02;-3.40;99.90
16040;DHT22;8124;48.634;8.120;2022-12-18T05:03:15;-3.40;99.90
16040;DHT22;8124;48.634;8.120;2022-12-18T05:08:18;-3.40;99.90
16040;DHT22;8124;48.634;8.120;2022-12-18T05:13:21;-3.50;99.90
16040;DHT22;8124;48.634;8.120;2022-12-18T05:18:26;-3.50;99.90
16040;DHT22;8124;48.634;8.120;2022-12-18T05:23:29;-3.40;99.90
16040;DHT22;8124;48.634;8.120;2022-12-18T05:28:33;-3.70;99.90
16040;DHT22;8124;48.634;8.120;2022-12-18T05:33:38;-4.00;99.90
16040;DHT22;8124;48.634;8.120;2022-12-18T05:38:42;-3.60;99.90
16040;DHT22;8124;48.634;8.120;2022-12-18T05:43:45;-3.60;99.90
16040;DHT22;8124;48.634;8.120;2022-12-18T05:48:49;-3.70;99.90
16040;DHT22;8124;48.634;8.120;2022-12-18T05:53:52;-3.90;99.90
16040;DHT22;8124;48.634;8.120;2022-12-18T05:58:55;-4.00;99.90
16040;DHT22;8124;48.634;8.120;2022-12-18T06:03:59;-4.10;99.90
16040;DHT22;8124;48.634;8.120;2022-12-18T06:09:04;-4.20;99.90
16040;DHT22;8124;48.634;8.120;2022-12-18T06:14:09;-4.10;99.90
16040;DHT22;8124;48.634;8.120;2022-12-18T06:19:16;-4.00;99.90
16040;DHT22;8124;48.634;8.120;2022-12-18T06:24:18;-4.10;99.90
16040;DHT22;8124;48.634;8.120;2022-12-18T06:29:22;-4.40;99.90
16040;DHT22;8124;48.634;8.120;2022-12-18T06:34:26;-4.50;99.90
16040;DHT22;8124;48.634;8.120;2022-12-18T06:39:29;-4.20;99.90
16040;DHT22;8124;48.634;8.120;2022-12-18T06:44:32;-4.00;99.90
16040;DHT22;8124;48.634;8.120;2022-12-18T06:49:36;-3.80;99.90
16040;DHT22;8124;48.634;8.120;2022-12-18T06:54:39;-3.80;99.90
16040;DHT22;8124;48.634;8.120;2022-12-18T06:59:42;-3.80;99.90
16040;DHT22;8124;48.634;8.120;2022-12-18T07:04:47;-3.70;99.90
16040;DHT22;8124;48.634;8.120;2022-12-18T07:09:51;-3.70;99.90
16040;DHT22;8124;48.634;8.120;2022-12-18T07:14:54;-3.60;99.90
16040;DHT22;8124;48.634;8.120;2022-12-18T07:19:58;-3.50;99.90
16040;DHT22;8124;48.634;8.120;2022-12-18T07:25:01;-3.60;99.90
16040;DHT22;8124;48.634;8.120;2022-12-18T07:30:05;-3.50;99.90
16040;DHT22;8124;48.634;8.120;2022-12-18T07:35:10;-3.40;99.90
16040;DHT22;8124;48.634;8.120;2022-12-18T07:40:13;-3.70;99.90
16040;DHT22;8124;48.634;8.120;2022-12-18T07:45:16;-3.60;99.90
16040;DHT22;8124;48.634;8.120;2022-12-18T07:50:20;-3.60;99.90
16040;DHT22;8124;48.634;8.120;2022-12-18T07:55:23;-3.60;99.90
16040;DHT22;8124;48.634;8.120;2022-12-18T08:00:26;-3.60;99.90
16040;DHT22;8124;48.634;8.120;2022-12-18T08:05:30;-3.50;99.90
16040;DHT22;8124;48.634;8.120;2022-12-18T08:10:33;-3.50;99.90
16040;DHT22;8124;48.634;8.120;2022-12-18T08:15:36;-3.90;99.90
16040;DHT22;8124;48.634;8.120;2022-12-18T08:20:41;-3.70;99.90
16040;DHT22;8124;48.634;8.120;2022-12-18T08:25:44;-3.60;99.90
16040;DHT22;8124;48.634;8.120;2022-12-18T08:30:51;-3.50;99.90
16040;DHT22;8124;48.634;8.120;2022-12-18T08:35:55;-3.50;99.90
16040;DHT22;8124;48.634;8.120;2022-12-18T08:40:59;-3.30;99.90
16040;DHT22;8124;48.634;8.120;2022-12-18T08:46:02;-3.80;99.90
16040;DHT22;8124;48.634;8.120;2022-12-18T08:51:07;-3.40;99.90
16040;DHT22;8124;48.634;8.120;2022-12-18T08:56:11;-3.30;99.90
16040;DHT22;8124;48.634;8.120;2022-12-18T09:01:14;-3.60;99.90
16040;DHT22;8124;48.634;8.120;2022-12-18T09:06:20;-3.40;99.90
16040;DHT22;8124;48.634;8.120;2022-12-18T09:11:26;-3.20;99.90
16040;DHT22;8124;48.634;8.120;2022-12-18T09:16:30;-3.30;99.90
16040;DHT22;8124;48.634;8.120;2022-12-18T09:21:37;-3.20;99.90
16040;DHT22;8124;48.634;8.120;2022-12-18T09:26:45;-3.10;99.90
16040;DHT22;8124;48.634;8.120;2022-12-18T09:31:48;-3.10;99.90
16040;DHT22;8124;48.634;8.120;2022-12-18T09:36:53;-3.50;99.90
16040;DHT22;8124;48.634;8.120;2022-12-18T09:41:57;-3.50;99.90
16040;DHT22;8124;48.634;8.120;2022-12-18T09:47:05;-3.50;99.90
16040;DHT22;8124;48.634;8.120;2022-12-18T09:52:16;-3.70;99.90
16040;DHT22;8124;48.634;8.120;2022-12-18T09:57:23;-3.30;99.90
16040;DHT22;8124;48.634;8.120;2022-12-18T10:02:30;-3.70;99.90
16040;DHT22;8124;48.634;8.120;2022-12-18T10:07:52;-3.00;99.90
16040;DHT22;8124;48.634;8.120;2022-12-18T10:13:01;-2.90;99.90
16040;DHT22;8124;48.634;8.120;2022-12-18T10:18:17;-3.70;99.90
16040;DHT22;8124;48.634;8.120;2022-12-18T10:23:28;-3.60;99.90
16040;DHT22;8124;48.634;8.120;2022-12-18T10:28:35;-3.50;99.90
16040;DHT22;8124;48.634;8.120;2022-12-18T10:33:39;-3.80;99.90
16040;DHT22;8124;48.634;8.120;2022-12-18T10:38:44;-3.50;99.90
16040;DHT22;8124;48.634;8.120;2022-12-18T10:43:47;-3.50;99.90
16040;DHT22;8124;48.634;8.120;2022-12-18T10:48:53;-3.40;99.90
16040;DHT22;8124;48.634;8.120;2022-12-18T10:54:01;-3.20;99.90
16040;DHT22;8124;48.634;8.120;2022-12-18T10:59:08;-3.70;99.90
16040;DHT22;8124;48.634;8.120;2022-12-18T11:04:18;-4.50;99.90
16040;DHT22;8124;48.634;8.120;2022-12-18T11:09:24;-4.20;99.90
16040;DHT22;8124;48.634;8.120;2022-12-18T11:14:28;-3.90;99.90
16040;DHT22;8124;48.634;8.120;2022-12-18T11:19:34;-4.00;99.90
16040;DHT22;8124;48.634;8.120;2022-12-18T11:24:39;-4.10;99.90
16040;DHT22;8124;48.634;8.120;2022-12-18T11:29:42;-4.20;99.90
16040;DHT22;8124;48.634;8.120;2022-12-18T11:34:50;-4.20;99.90
16040;DHT22;8124;48.634;8.120;2022-12-18T11:40:05;-4.10;99.90
16040;DHT22;8124;48.634;8.120;2022-12-18T11:45:25;-3.90;99.90
16040;DHT22;8124;48.634;8.120;2022-12-18T11:50:33;-4.10;99.90
16040;DHT22;8124;48.634;8.120;2022-12-18T11:55:44;-4.30;99.90
16040;DHT22;8124;48.634;8.120;2022-12-18T12:00:56;-4.00;99.90
16040;DHT22;8124;48.634;8.120;2022-12-18T12:06:10;-4.20;99.90
16040;DHT22;8124;48.634;8.120;2022-12-18T12:11:25;-4.10;99.90
16040;DHT22;8124;48.634;8.120;2022-12-18T12:16:37;-4.00;99.90
16040;DHT22;8124;48.634;8.120;2022-12-18T12:21:48;-4.10;99.90
16040;DHT22;8124;48.634;8.120;2022-12-18T12:27:04;-3.70;99.90
16040;DHT22;8124;48.634;8.120;2022-12-18T12:32:22;-3.70;99.90
16040;DHT22;8124;48.634;8.120;2022-12-18T12:37:36;-3.50;99.90
16040;DHT22;8124;48.634;8.120;2022-12-18T12:42:45;-3.30;99.90
16040;DHT22;8124;48.634;8.120;2022-12-18T12:48:16;-3.20;99.90
16040;DHT22;8124;48.634;8.120;2022-12-18T12:53:25;-3.00;99.90
16040;DHT22;8124;48.634;8.120;2022-12-18T12:58:36;-2.90;99.90
16040;DHT22;8124;48.634;8.120;2022-12-18T13:03:47;-2.90;99.90
16040;DHT22;8124;48.634;8.120;2022-12-18T13:08:55;-2.80;99.90
16040;DHT22;8124;48.634;8.120;2022-12-18T13:14:00;-2.80;99.90
16040;DHT22;8124;48.634;8.120;2022-12-18T13:19:03;-2.70;99.90
16040;DHT22;8124;48.634;8.120;2022-12-18T13:24:15;-2.70;99.90
16040;DHT22;8124;48.634;8.120;2022-12-18T13:29:45;-2.70;99.90
16040;DHT22;8124;48.634;8.120;2022-12-18T13:34:49;-2.70;99.90
16040;DHT22;8124;48.634;8.120;2022-12-18T13:46:17;-2.90;99.90
16040;DHT22;8124;48.634;8.120;2022-12-18T13:51:21;-2.70;99.90
16040;DHT22;8124;48.634;8.120;2022-12-18T13:56:27;-3.10;99.90
16040;DHT22;8124;48.634;8.120;2022-12-18T14:01:32;-3.10;99.90
16040;DHT22;8124;48.634;8.120;2022-12-18T14:06:43;-3.00;99.90
16040;DHT22;8124;48.634;8.120;2022-12-18T14:11:48;-3.10;99.90
16040;DHT22;8124;48.634;8.120;2022-12-18T14:16:53;-3.20;99.90
16040;DHT22;8124;48.634;8.120;2022-12-18T14:21:56;-3.00;99.90
16040;DHT22;8124;48.634;8.120;2022-12-18T14:27:13;-3.00;99.90
16040;DHT22;8124;48.634;8.120;2022-12-18T14:32:23;-3.00;99.90
16040;DHT22;8124;48.634;8.120;2022-12-18T14:37:27;-2.90;99.90
16040;DHT22;8124;48.634;8.120;2022-12-18T14:42:30;-3.00;99.90
16040;DHT22;8124;48.634;8.120;2022-12-18T14:47:34;-2.80;99.90
16040;DHT22;8124;48.634;8.120;2022-12-18T14:52:37;-2.90;99.90
16040;DHT22;8124;48.634;8.120;2022-12-18T14:57:40;-2.90;99.90
16040;DHT22;8124;48.634;8.120;2022-12-18T15:02:47;-3.00;99.90
16040;DHT22;8124;48.634;8.120;2022-12-18T15:07:53;-2.90;99.90
16040;DHT22;8124;48.634;8.120;2022-12-18T15:13:16;-3.00;99.90
16040;DHT22;8124;48.634;8.120;2022-12-18T15:18:29;-3.10;99.90
16040;DHT22;8124;48.634;8.120;2022-12-18T15:23:35;-3.10;99.90
16040;DHT22;8124;48.634;8.120;2022-12-18T15:28:44;-3.20;99.90
16040;DHT22;8124;48.634;8.120;2022-12-18T15:34:08;-3.30;99.90
16040;DHT22;8124;48.634;8.120;2022-12-18T15:39:12;-3.30;99.90
16040;DHT22;8124;48.634;8.120;2022-12-18T15:44:22;-3.20;99.90
16040;DHT22;8124;48.634;8.120;2022-12-18T15:49:27;-3.20;99.90
16040;DHT22;8124;48.634;8.120;2022-12-18T15:54:30;-3.10;99.90
16040;DHT22;8124;48.634;8.120;2022-12-18T15:59:52;-3.00;99.90
16040;DHT22;8124;48.634;8.120;2022-12-18T16:04:58;-3.10;99.90
16040;DHT22;8124;48.634;8.120;2022-12-18T16:10:01;-3.10;99.90
16040;DHT22;8124;48.634;8.120;2022-12-18T16:15:05;-3.10;99.90
16040;DHT22;8124;48.634;8.120;2022-12-18T16:20:14;-3.20;99.90
16040;DHT22;8124;48.634;8.120;2022-12-18T16:25:19;-3.30;99.90
16040;DHT22;8124;48.634;8.120;2022-12-18T16:30:24;-3.20;99.90
16040;DHT22;8124;48.634;8.120;2022-12-18T16:35:34;-3.20;99.90
16040;DHT22;8124;48.634;8.120;2022-12-18T16:40:38;-3.20;99.90
16040;DHT22;8124;48.634;8.120;2022-12-18T16:46:03;-3.30;99.90
16040;DHT22;8124;48.634;8.120;2022-12-18T16:51:07;-3.20;99.90
16040;DHT22;8124;48.634;8.120;2022-12-18T16:56:10;-3.10;99.90
16040;DHT22;8124;48.634;8.120;2022-12-18T17:01:13;-3.00;99.90
16040;DHT22;8124;48.634;8.120;2022-12-18T17:06:18;-3.00;99.90
16040;DHT22;8124;48.634;8.120;2022-12-18T17:11:21;-3.00;99.90
16040;DHT22;8124;48.634;8.120;2022-12-18T17:16:26;-2.80;99.90
16040;DHT22;8124;48.634;8.120;2022-12-18T17:21:30;-2.70;99.90
16040;DHT22;8124;48.634;8.120;2022-12-18T17:26:33;-2.80;99.90
16040;DHT22;8124;48.634;8.120;2022-12-18T17:31:36;-3.00;99.90
16040;DHT22;8124;48.634;8.120;2022-12-18T17:36:41;-3.00;99.90
16040;DHT22;8124;48.634;8.120;2022-12-18T17:41:44;-3.10;99.90
16040;DHT22;8124;48.634;8.120;2022-12-18T17:46:47;-3.10;99.90
16040;DHT22;8124;48.634;8.120;2022-12-18T17:51:52;-3.00;99.90
16040;DHT22;8124;48.634;8.120;2022-12-18T17:56:55;-2.90;99.90
16040;DHT22;8124;48.634;8.120;2022-12-18T18:01:58;-3.00;99.90
16040;DHT22;8124;48.634;8.120;2022-12-18T18:07:03;-3.00;99.90
16040;DHT22;8124;48.634;8.120;2022-12-18T18:12:07;-2.90;99.90
16040;DHT22;8124;48.634;8.120;2022-12-18T18:17:28;-2.70;99.90
16040;DHT22;8124;48.634;8.120;2022-12-18T18:22:32;-2.60;99.90
16040;DHT22;8124;48.634;8.120;2022-12-18T18:27:35;-2.50;99.90
16040;DHT22;8124;48.634;8.120;2022-12-18T18:32:39;-2.70;99.90
16040;DHT22;8124;48.634;8.120;2022-12-18T18:37:48;-2.80;99.90
16040;DHT22;8124;48.634;8.120;2022-12-18T18:42:52;-2.70;99.90
16040;DHT22;8124;48.634;8.120;2022-12-18T18:47:55;-2.80;99.90
16040;DHT22;8124;48.634;8.120;2022-12-18T18:53:00;-2.70;99.90
16040;DHT22;8124;48.634;8.120;2022-12-18T18:58:03;-2.60;99.90
16040;DHT22;8124;48.634;8.120;2022-12-18T19:03:07;-2.50;99.90
16040;DHT22;8124;48.634;8.120;2022-12-18T19:08:12;-2.40;99.90
16040;DHT22;8124;48.634;8.120;2022-12-18T19:13:15;-2.50;99.90
16040;DHT22;8124;48.634;8.120;2022-12-18T19:18:25;-2.80;99.90
16040;DHT22;8124;48.634;8.120;2022-12-18T19:23:30;-2.70;99.90
16040;DHT22;8124;48.634;8.120;2022-12-18T19:28:34;-2.70;99.90
16040;DHT22;8124;48.634;8.120;2022-12-18T19:33:39;-2.60;99.90
16040;DHT22;8124;48.634;8.120;2022-12-18T19:38:46;-2.40;99.90
16040;DHT22;8124;48.634;8.120;2022-12-18T19:43:50;-2.40;99.90
16040;DHT22;8124;48.634;8.120;2022-12-18T19:48:53;-2.30;99.90
16040;DHT22;8124;48.634;8.120;2022-12-18T19:54:00;-2.30;99.90
16040;DHT22;8124;48.634;8.120;2022-12-18T19:59:03;-2.30;99.90
16040;DHT22;8124;48.634;8.120;2022-12-18T20:04:06;-2.40;99.90
16040;DHT22;8124;48.634;8.120;2022-12-18T20:09:11;-2.30;99.90
16040;DHT22;8124;48.634;8.120;2022-12-18T20:14:15;-2.20;99.90
16040;DHT22;8124;48.634;8.120;2022-12-18T20:19:25;-2.20;99.90
16040;DHT22;8124;48.634;8.120;2022-12-18T20:24:29;-2.10;99.90
16040;DHT22;8124;48.634;8.120;2022-12-18T20:29:33;-2.10;99.90
16040;DHT22;8124;48.634;8.120;2022-12-18T20:34:36;-2.00;99.90
16040;DHT22;8124;48.634;8.120;2022-12-18T20:39:40;-2.20;99.90
16040;DHT22;8124;48.634;8.120;2022-12-18T20:44:43;-2.20;99.90
16040;DHT22;8124;48.634;8.120;2022-12-18T20:49:47;-2.00;99.90
16040;DHT22;8124;48.634;8.120;2022-12-18T20:54:51;-2.00;99.90
16040;DHT22;8124;48.634;8.120;2022-12-18T20:59:54;-2.00;99.90
16040;DHT22;8124;48.634;8.120;2022-12-18T21:04:57;-2.10;99.90
16040;DHT22;8124;48.634;8.120;2022-12-18T21:10:03;-2.10;99.90
16040;DHT22;8124;48.634;8.120;2022-12-18T21:15:09;-2.00;99.90
16040;DHT22;8124;48.634;8.120;2022-12-18T21:20:12;-2.00;99.90
16040;DHT22;8124;48.634;8.120;2022-12-18T21:25:21;-2.00;99.90
16040;DHT22;8124;48.634;8.120;2022-12-18T21:30:23;-2.10;99.90
16040;DHT22;8124;48.634;8.120;2022-12-18T21:35:26;-1.90;99.90
16040;DHT22;8124;48.634;8.120;2022-12-18T21:40:34;-1.90;99.90
16040;DHT22;8124;48.634;8.120;2022-12-18T21:45:37;-1.90;99.90
16040;DHT22;8124;48.634;8.120;2022-12-18T21:50:40;-1.80;99.90
16040;DHT22;8124;48.634;8.120;2022-12-18T21:55:45;-1.90;99.90
16040;DHT22;8124;48.634;8.120;2022-12-18T22:00:48;-1.80;99.90
16040;DHT22;8124;48.634;8.120;2022-12-18T22:05:51;-1.80;99.90
16040;DHT22;8124;48.634;8.120;2022-12-18T22:11:12;-1.70;99.90
16040;DHT22;8124;48.634;8.120;2022-12-18T22:16:16;-1.70;99.90
16040;DHT22;8124;48.634;8.120;2022-12-18T22:21:27;-1.70;99.90
16040;DHT22;8124;48.634;8.120;2022-12-18T22:26:33;-1.60;99.90
16040;DHT22;8124;48.634;8.120;2022-12-18T22:31:41;-1.50;99.90
16040;DHT22;8124;48.634;8.120;2022-12-18T22:36:46;-1.60;99.90
16040;DHT22;8124;48.634;8.120;2022-12-18T22:41:51;-1.60;99.90
16040;DHT22;8124;48.634;8.120;2022-12-18T22:46:55;-1.50;99.90
16040;DHT22;8124;48.634;8.120;2022-12-18T22:52:08;-1.40;99.90
16040;DHT22;8124;48.634;8.120;2022-12-18T22:57:12;-1.50;99.90
16040;DHT22;8124;48.634;8.120;2022-12-18T23:02:17;-1.80;99.90
16040;DHT22;8124;48.634;8.120;2022-12-18T23:07:20;-1.90;99.90
16040;DHT22;8124;48.634;8.120;2022-12-18T23:12:25;-1.90;99.90
16040;DHT22;8124;48.634;8.120;2022-12-18T23:17:28;-1.80;99.90
16040;DHT22;8124;48.634;8.120;2022-12-18T23:22:31;-1.80;99.90
16040;DHT22;8124;48.634;8.120;2022-12-18T23:27:35;-1.70;99.90
16040;DHT22;8124;48.634;8.120;2022-12-18T23:32:38;-1.50;99.90
16040;DHT22;8124;48.634;8.120;2022-12-18T23:37:41;-1.70;99.90
16040;DHT22;8124;48.634;8.120;2022-12-18T23:43:01;-1.90;99.90
16040;DHT22;8124;48.634;8.120;2022-12-18T23:48:03;-2.00;99.90
16040;DHT22;8124;48.634;8.120;2022-12-18T23:53:07;-1.90;99.90
16040;DHT22;8124;48.634;8.120;2022-12-18T23:58:17;-1.80;99.90
